Time;durP1;ratioP1;P1;durP2;ratioP2;P2;SDS_P1;SDS_P2;PMS_P1;PMS_P2;Temp;Humidity;BMP_temperature;BMP_pressure;BME280_temperature;BME280_humidity;BME280_pressure;Samples;Min_cycle;Max_cycle;Signal;HPM_P1;HPM_P2
2022/09/24 00:00:05;;;;;;;5.43;4.93;;;14.50;35.30;;;;;;10515152;28;20239;-77
2022/09/24 00:05:10;;;;;;;6.27;5.77;;;14.50;35.60;;;;;;10524408;28;20278;-79
2022/09/24 00:10:13;;;;;;;5.90;5.40;;;14.50;36.00;;;;;;10519120;28;20755;-76
2022/09/24 00:15:17;;;;;;;7.33;6.53;;;14.50;35.50;;;;;;10509349;28;20228;-77
2022/09/24 00:20:21;;;;;;;6.00;5.50;;;14.50;35.60;;;;;;10508922;28;20273;-77
2022/09/24 00:30:45;;;;;;;7.10;6.40;;;14.50;35.60;;;;;;10511047;28;20223;-77
2022/09/24 00:35:51;;;;;;;7.17;6.40;;;14.40;35.70;;;;;;10513423;28;20231;-76
2022/09/24 00:40:54;;;;;;;6.80;6.20;;;14.50;36.20;;;;;;10511215;28;20641;-76
2022/09/24 00:46:03;;;;;;;6.27;5.70;;;14.40;35.60;;;;;;10514113;28;20231;-77
2022/09/24 00:51:16;;;;;;;5.93;5.33;;;14.50;36.00;;;;;;10515465;28;20221;-76
2022/09/24 00:56:21;;;;;;;6.53;6.00;;;14.40;36.60;;;;;;10515599;28;20232;-77
2022/09/24 01:01:25;;;;;;;6.23;5.73;;;14.40;36.00;;;;;;10512622;28;20228;-76
2022/09/24 01:06:29;;;;;;;5.93;5.43;;;14.40;36.00;;;;;;10514108;28;20740;-76
2022/09/24 01:11:45;;;;;;;5.13;4.63;;;14.40;36.20;;;;;;10515396;28;20273;-77
2022/09/24 01:16:58;;;;;;;6.63;5.37;;;14.40;36.80;;;;;;10520135;28;20281;-76
2022/09/24 01:22:07;;;;;;;5.30;4.80;;;14.30;36.90;;;;;;10515458;28;20231;-77
2022/09/24 01:27:15;;;;;;;5.67;5.10;;;14.30;36.60;;;;;;10521602;28;20252;-77
2022/09/24 01:32:24;;;;;;;5.33;4.93;;;14.30;36.40;;;;;;10525164;28;20227;-76
2022/09/24 01:37:37;;;;;;;4.57;4.17;;;14.20;36.60;;;;;;10521039;28;20773;-76
2022/09/24 01:42:44;;;;;;;5.53;4.70;;;14.20;36.10;;;;;;10520545;28;20720;-76
2022/09/24 01:47:49;;;;;;;5.07;4.17;;;14.10;36.20;;;;;;10516610;28;20219;-77
2022/09/24 01:52:56;;;;;;;4.57;4.20;;;14.10;36.30;;;;;;10512331;28;20251;-76
2022/09/24 01:58:03;;;;;;;5.87;4.90;;;14.00;36.40;;;;;;10521671;28;20239;-76
2022/09/24 02:03:12;;;;;;;4.97;4.57;;;14.00;36.60;;;;;;10513511;28;20235;-76
2022/09/24 02:08:19;;;;;;;4.97;4.57;;;13.90;36.70;;;;;;10515463;28;20711;-77
2022/09/24 02:13:27;;;;;;;5.20;4.63;;;13.90;36.70;;;;;;10523414;28;20235;-76
2022/09/24 02:18:34;;;;;;;5.47;4.97;;;13.80;36.90;;;;;;10531362;28;20223;-76
2022/09/24 02:23:42;;;;;;;5.73;5.23;;;13.80;37.00;;;;;;10518705;28;20852;-76
2022/09/24 02:28:46;;;;;;;5.47;4.97;;;13.80;37.70;;;;;;10520860;28;20228;-76
2022/09/24 02:39:12;;;;;;;6.03;4.70;;;13.70;37.00;;;;;;10526124;28;20696;-76
2022/09/24 02:44:15;;;;;;;5.23;4.63;;;13.70;36.70;;;;;;10524061;28;20237;-77
2022/09/24 02:49:20;;;;;;;4.90;4.13;;;13.70;36.70;;;;;;10520025;28;20234;-76
2022/09/24 02:54:23;;;;;;;5.47;5.00;;;13.70;36.90;;;;;;10529428;28;20698;-76
2022/09/24 02:59:27;;;;;;;5.83;5.10;;;13.70;36.70;;;;;;10504684;28;20235;-76
2022/09/24 03:04:31;;;;;;;5.03;4.57;;;13.70;36.70;;;;;;10511913;28;20232;-77
2022/09/24 03:09:34;;;;;;;4.57;4.03;;;13.60;36.80;;;;;;10525833;28;20798;-77
2022/09/24 03:14:37;;;;;;;4.47;4.07;;;13.60;36.60;;;;;;10518673;28;20228;-77
2022/09/24 03:19:42;;;;;;;4.43;4.03;;;13.60;36.70;;;;;;10517637;28;20231;-76
2022/09/24 03:24:45;;;;;;;4.10;3.80;;;13.60;37.00;;;;;;10522755;28;20228;-77
2022/09/24 03:35:10;;;;;;;4.43;4.13;;;13.60;37.00;;;;;;10523871;28;20223;-76
2022/09/24 03:40:14;;;;;;;4.50;4.10;;;13.50;37.20;;;;;;10516972;28;20220;-77
2022/09/24 03:45:17;;;;;;;5.43;4.23;;;13.50;37.00;;;;;;10527780;28;20251;-76
2022/09/24 03:50:22;;;;;;;5.07;4.57;;;13.50;37.00;;;;;;10515399;28;20636;-77
2022/09/24 03:55:25;;;;;;;4.40;4.10;;;13.50;37.60;;;;;;10486942;28;20341;-76
2022/09/24 04:00:28;;;;;;;4.83;4.07;;;13.50;37.20;;;;;;10510693;28;20227;-76
2022/09/24 04:05:34;;;;;;;4.93;4.53;;;13.50;37.20;;;;;;10518138;28;20313;-77
2022/09/24 04:10:37;;;;;;;4.37;3.97;;;13.50;37.80;;;;;;10518417;28;20224;-76
2022/09/24 04:15:40;;;;;;;4.83;4.33;;;13.50;37.30;;;;;;10515423;28;20241;-77
2022/09/24 04:20:45;;;;;;;5.03;4.53;;;13.50;37.40;;;;;;10522654;28;20219;-76
2022/09/24 04:25:48;;;;;;;3.90;3.60;;;13.50;38.00;;;;;;10518372;28;20236;-76
2022/09/24 04:30:52;;;;;;;4.97;4.57;;;13.50;37.50;;;;;;10515292;28;20223;-76
2022/09/24 04:35:56;;;;;;;4.27;3.87;;;13.50;38.20;;;;;;10518562;28;20319;-76
2022/09/24 04:41:05;;;;;;;4.77;4.37;;;13.50;37.80;;;;;;10525151;28;20587;-77
2022/09/24 04:46:09;;;;;;;5.03;4.63;;;13.50;38.40;;;;;;10517774;28;20223;-76
2022/09/24 04:51:14;;;;;;;4.57;4.13;;;13.50;37.70;;;;;;10508472;28;20235;-76
2022/09/24 04:56:17;;;;;;;6.73;6.07;;;13.50;37.80;;;;;;10507671;28;20243;-77
2022/09/24 05:01:20;;;;;;;13.10;10.43;;;13.50;37.60;;;;;;10522599;28;20234;-76
2022/09/24 05:06:25;;;;;;;8.97;7.87;;;13.50;37.70;;;;;;10516275;28;20697;-76
2022/09/24 05:11:28;;;;;;;14.27;10.87;;;13.40;37.70;;;;;;10510138;28;20250;-76
2022/09/24 05:16:31;;;;;;;10.13;8.53;;;13.40;37.60;;;;;;10519721;28;20231;-76
2022/09/24 05:21:36;;;;;;;7.80;7.10;;;13.40;37.60;;;;;;10512151;28;20224;-77
2022/09/24 05:32:04;;;;;;;8.17;5.33;;;13.40;38.00;;;;;;10518975;28;20250;-76
2022/09/24 05:37:09;;;;;;;5.47;4.97;;;13.40;38.40;;;;;;10502578;28;20225;-76
2022/09/24 05:42:13;;;;;;;5.77;5.27;;;13.40;38.40;;;;;;10515724;28;20794;-76
2022/09/24 05:47:16;;;;;;;7.93;7.13;;;13.40;38.20;;;;;;10519400;28;20255;-76
2022/09/24 05:52:21;;;;;;;6.57;5.90;;;13.40;38.20;;;;;;10522378;28;20262;-76
2022/09/24 05:57:24;;;;;;;6.70;6.10;;;13.40;38.70;;;;;;10524439;28;20278;-76
2022/09/24 06:02:27;;;;;;;8.70;7.77;;;13.40;38.40;;;;;;10523191;28;20232;-76
2022/09/24 06:07:32;;;;;;;13.50;8.67;;;13.30;38.60;;;;;;10521904;28;20601;-77
2022/09/24 06:12:35;;;;;;;16.67;13.87;;;13.30;39.30;;;;;;10522646;28;20635;-77
2022/09/24 06:17:38;;;;;;;17.17;13.73;;;13.30;39.10;;;;;;10522394;28;20231;-76
2022/09/24 06:22:43;;;;;;;10.53;9.53;;;13.30;39.30;;;;;;10518419;28;20812;-76
2022/09/24 06:27:57;;;;;;;9.53;7.77;;;13.40;40.10;;;;;;10514072;28;20224;-76
2022/09/24 06:33:04;;;;;;;10.80;9.70;;;13.50;41.10;;;;;;10519426;28;20238;-75
2022/09/24 06:38:11;;;;;;;12.90;11.70;;;13.60;41.00;;;;;;10515618;28;20306;-75
2022/09/24 06:43:16;;;;;;;10.43;8.70;;;13.60;41.00;;;;;;10509510;28;20696;-76
2022/09/24 06:48:21;;;;;;;8.67;7.87;;;13.70;40.10;;;;;;10517850;28;20241;-76
2022/09/24 06:53:25;;;;;;;7.57;6.50;;;13.70;40.10;;;;;;10519883;28;20223;-76
2022/09/24 06:58:29;;;;;;;7.27;6.43;;;13.80;40.70;;;;;;10526481;28;20284;-76
2022/09/24 07:03:33;;;;;;;7.30;6.70;;;13.80;40.20;;;;;;10518828;28;20227;-75
2022/09/24 07:08:38;;;;;;;7.90;6.37;;;13.90;40.70;;;;;;10527419;28;20223;-76
2022/09/24 07:13:41;;;;;;;7.43;6.67;;;13.90;40.90;;;;;;10527502;28;20220;-76
2022/09/24 07:18:45;;;;;;;9.13;7.33;;;14.00;40.60;;;;;;10516658;28;20223;-76
2022/09/24 07:23:50;;;;;;;11.20;8.97;;;14.10;40.60;;;;;;10513600;28;20720;-76
2022/09/24 07:29:01;;;;;;;8.20;7.37;;;14.10;41.00;;;;;;10514162;28;20228;-76
2022/09/24 07:34:07;;;;;;;7.50;6.90;;;14.20;40.70;;;;;;10516519;28;20255;-76
2022/09/24 07:39:12;;;;;;;9.60;8.77;;;14.30;41.60;;;;;;10511521;28;20862;-76
2022/09/24 07:44:16;;;;;;;8.47;7.60;;;14.40;41.30;;;;;;10512835;28;20230;-76
2022/09/24 07:49:19;;;;;;;10.13;7.97;;;14.50;41.10;;;;;;10518367;28;20223;-76
2022/09/24 07:54:25;;;;;;;8.80;8.10;;;14.50;41.00;;;;;;10515821;28;20224;-76
2022/09/24 07:59:29;;;;;;;8.30;6.77;;;14.50;41.50;;;;;;10519220;28;20232;-76
2022/09/24 08:04:32;;;;;;;6.83;6.23;;;14.60;41.10;;;;;;10514956;28;20366;-76
2022/09/24 08:09:37;;;;;;;5.83;5.33;;;14.70;41.30;;;;;;10513333;28;20231;-76
2022/09/24 08:14:42;;;;;;;6.73;5.67;;;14.70;41.60;;;;;;10513532;28;20246;-76
2022/09/24 08:19:45;;;;;;;9.00;8.10;;;14.80;41.30;;;;;;10508974;28;20227;-76
2022/09/24 08:24:50;;;;;;;8.77;7.80;;;14.80;41.20;;;;;;10501854;28;20692;-76
2022/09/24 08:29:53;;;;;;;10.00;9.20;;;14.90;41.90;;;;;;10503307;28;20228;-76
2022/09/24 08:34:56;;;;;;;10.03;9.13;;;15.00;41.50;;;;;;10505430;28;20220;-76
2022/09/24 08:40:02;;;;;;;8.40;7.60;;;15.00;42.40;;;;;;10511339;28;20232;-76
2022/09/24 08:50:29;;;;;;;8.77;7.97;;;15.20;42.20;;;;;;10512278;28;20227;-76
2022/09/24 08:55:38;;;;;;;8.90;8.10;;;15.30;42.10;;;;;;10509527;28;20637;-77
2022/09/24 09:00:48;;;;;;;8.50;7.70;;;15.40;43.30;;;;;;10507183;28;20216;-77
2022/09/24 09:05:56;;;;;;;9.47;8.23;;;15.50;43.40;;;;;;10508612;28;20221;-77
2022/09/24 09:11:03;;;;;;;8.33;7.63;;;15.60;42.90;;;;;;10518577;28;20254;-78
2022/09/24 09:16:14;;;;;;;8.83;7.60;;;15.70;43.10;;;;;;10517405;28;20235;-75
2022/09/24 09:21:22;;;;;;;7.23;6.63;;;15.80;42.80;;;;;;10523806;28;20224;-77
2022/09/24 09:26:26;;;;;;;7.00;6.40;;;15.80;42.80;;;;;;10518118;28;20720;-78
2022/09/24 09:31:42;;;;;;;7.33;6.70;;;16.10;43.30;;;;;;10517686;28;20223;-78
2022/09/24 09:36:58;;;;;;;6.77;6.17;;;16.20;44.10;;;;;;10515435;28;20227;-78
2022/09/24 09:42:16;;;;;;;7.43;6.83;;;16.40;44.00;;;;;;10510358;28;20219;-77
2022/09/24 09:47:27;;;;;;;7.23;6.50;;;16.50;44.00;;;;;;10515905;28;20637;-77
2022/09/24 09:52:34;;;;;;;7.43;6.83;;;16.60;43.70;;;;;;10508707;28;20790;-77
2022/09/24 09:57:41;;;;;;;7.57;6.80;;;16.70;42.70;;;;;;10509770;28;20440;-78
2022/09/24 10:02:52;;;;;;;7.37;6.77;;;16.80;43.70;;;;;;10506808;28;20644;-77
2022/09/24 10:07:56;;;;;;;8.93;6.00;;;16.80;42.70;;;;;;10505876;28;20238;-78
2022/09/24 10:13:12;;;;;;;7.80;6.27;;;16.80;42.80;;;;;;10509933;28;20228;-77
2022/09/24 10:18:16;;;;;;;7.50;6.80;;;16.90;43.90;;;;;;10516308;28;20230;-79
2022/09/24 10:23:23;;;;;;;6.37;5.87;;;16.90;42.90;;;;;;10517731;28;20269;-77
2022/09/24 10:33:51;;;;;;;8.03;7.23;;;17.00;43.50;;;;;;10530224;28;20219;-78
2022/09/24 10:39:03;;;;;;;8.93;7.13;;;17.00;43.70;;;;;;10527903;28;20231;-79
2022/09/24 10:44:11;;;;;;;7.67;6.97;;;17.00;44.40;;;;;;10529631;28;20230;-79
2022/09/24 10:49:23;;;;;;;7.40;6.80;;;17.00;44.20;;;;;;10527592;28;20263;-79
2022/09/24 10:54:40;;;;;;;8.40;7.60;;;17.00;44.70;;;;;;10519406;28;20338;-78
2022/09/24 10:59:54;;;;;;;8.53;7.73;;;17.10;45.10;;;;;;10517470;28;20231;-77
2022/09/24 11:05:01;;;;;;;8.13;7.53;;;17.10;45.30;;;;;;10501796;28;20270;-77
2022/09/24 11:10:19;;;;;;;8.13;7.47;;;17.10;44.00;;;;;;10511044;28;20223;-77
2022/09/24 11:15:41;;;;;;;7.60;6.97;;;17.10;46.00;;;;;;10510122;28;20285;-77
2022/09/24 11:20:54;;;;;;;8.53;7.83;;;17.20;45.50;;;;;;10508054;28;20447;-76
2022/09/24 11:26:06;;;;;;;7.70;7.10;;;17.20;45.40;;;;;;10502647;28;20235;-76
2022/09/24 11:31:17;;;;;;;8.27;7.67;;;17.20;45.00;;;;;;10506429;28;20220;-76
2022/09/24 11:36:38;;;;;;;9.17;8.37;;;17.30;45.40;;;;;;10508728;28;20227;-77
2022/09/24 11:41:54;;;;;;;9.40;8.60;;;17.30;45.30;;;;;;10509930;28;20218;-77
2022/09/24 11:47:13;;;;;;;9.13;8.23;;;17.30;45.50;;;;;;10505596;28;20949;-77
2022/09/24 11:52:27;;;;;;;8.27;7.57;;;17.30;45.60;;;;;;10508113;28;20228;-78
2022/09/24 11:57:34;;;;;;;12.57;11.47;;;17.40;45.50;;;;;;10500433;28;20230;-77
2022/09/24 12:02:43;;;;;;;9.63;8.73;;;17.40;44.80;;;;;;10502480;28;20301;-77
2022/09/24 12:07:51;;;;;;;9.00;8.10;;;17.40;45.50;;;;;;10501657;28;20687;-77
2022/09/24 12:13:01;;;;;;;9.97;9.17;;;17.50;45.30;;;;;;10504644;28;20296;-77
2022/09/24 12:18:12;;;;;;;9.27;8.37;;;17.50;45.50;;;;;;10500060;28;20219;-77
2022/09/24 12:23:19;;;;;;;9.40;8.60;;;17.50;45.70;;;;;;10499677;28;20220;-77
2022/09/24 12:33:52;;;;;;;9.83;9.03;;;17.60;44.50;;;;;;10498943;28;20223;-77
2022/09/24 12:39:02;;;;;;;9.93;9.13;;;17.60;46.30;;;;;;10499166;28;20228;-77
2022/09/24 12:44:13;;;;;;;10.07;9.17;;;17.70;45.20;;;;;;10501549;28;20212;-77
2022/09/24 12:49:31;;;;;;;9.77;8.87;;;17.70;45.20;;;;;;10506023;28;20226;-77
2022/09/24 12:54:36;;;;;;;9.80;8.83;;;17.70;45.40;;;;;;10498534;28;20219;-77
2022/09/24 12:59:51;;;;;;;9.90;9.10;;;17.70;44.70;;;;;;10509411;28;20227;-77
2022/09/24 13:05:17;;;;;;;11.40;10.30;;;17.70;45.90;;;;;;10510117;28;20215;-77
2022/09/24 13:10:26;;;;;;;11.43;10.33;;;17.70;45.60;;;;;;10501685;28;20216;-77
2022/09/24 13:15:35;;;;;;;11.67;10.47;;;17.70;45.80;;;;;;10506088;28;20235;-77
2022/09/24 13:20:41;;;;;;;11.20;10.30;;;17.80;46.30;;;;;;10507593;28;20220;-77
2022/09/24 13:25:56;;;;;;;11.10;10.20;;;17.80;45.40;;;;;;10511873;28;20314;-77
2022/09/24 13:31:08;;;;;;;11.23;10.33;;;17.80;45.80;;;;;;10508891;28;20230;-77
2022/09/24 13:36:17;;;;;;;9.87;9.07;;;17.80;45.80;;;;;;10517818;28;20228;-77
2022/09/24 13:41:30;;;;;;;10.47;9.57;;;17.80;45.50;;;;;;10510909;28;20224;-77
2022/09/24 13:46:36;;;;;;;10.97;9.97;;;17.80;46.00;;;;;;10509002;28;20277;-77
2022/09/24 13:51:44;;;;;;;10.07;9.27;;;17.80;45.70;;;;;;10508731;28;20238;-77
2022/09/24 13:56:58;;;;;;;11.03;9.93;;;17.80;45.60;;;;;;10505441;28;20845;-77
2022/09/24 14:02:02;;;;;;;9.53;8.63;;;17.90;46.40;;;;;;10510640;28;20222;-77
2022/09/24 14:07:06;;;;;;;10.50;9.60;;;17.90;44.90;;;;;;10514043;28;20278;-77
2022/09/24 14:12:15;;;;;;;9.83;9.03;;;17.90;45.70;;;;;;10513994;28;20227;-77
2022/09/24 14:17:18;;;;;;;11.20;10.20;;;17.90;46.30;;;;;;10515613;28;20624;-77
2022/09/24 14:22:26;;;;;;;10.37;9.57;;;18.00;45.40;;;;;;10510431;28;20334;-77
2022/09/24 14:27:32;;;;;;;10.80;9.90;;;18.00;46.30;;;;;;10503127;28;20238;-77
2022/09/24 14:32:38;;;;;;;10.87;9.87;;;18.00;45.80;;;;;;10501693;28;20225;-77
2022/09/24 14:37:49;;;;;;;10.73;9.93;;;18.00;45.80;;;;;;10500729;28;20270;-77
2022/09/24 14:42:55;;;;;;;10.50;9.50;;;18.00;46.70;;;;;;10498849;28;20879;-78
2022/09/24 14:48:03;;;;;;;9.17;8.37;;;18.00;46.10;;;;;;10501119;28;20228;-77
2022/09/24 14:53:19;;;;;;;10.00;9.10;;;18.00;46.30;;;;;;10499600;28;20223;-77
2022/09/24 14:58:32;;;;;;;8.23;7.53;;;18.00;47.70;;;;;;10497034;28;20630;-77
2022/09/24 15:03:41;;;;;;;9.47;8.67;;;18.10;46.50;;;;;;10496138;28;20228;-77
2022/09/24 15:08:55;;;;;;;8.43;7.73;;;18.10;46.70;;;;;;10505982;28;20231;-77
2022/09/24 15:14:00;;;;;;;10.20;9.40;;;18.10;46.20;;;;;;10498318;28;20224;-78
2022/09/24 15:19:18;;;;;;;10.33;9.43;;;18.10;45.70;;;;;;10505364;28;20232;-77
2022/09/24 15:24:24;;;;;;;8.03;7.33;;;18.10;46.50;;;;;;10517839;28;20250;-78
2022/09/24 15:29:27;;;;;;;9.27;8.47;;;18.10;45.80;;;;;;10506082;28;20235;-77
2022/09/24 15:34:30;;;;;;;10.20;9.10;;;18.20;45.60;;;;;;10513471;28;20231;-77
2022/09/24 15:39:35;;;;;;;12.03;10.93;;;18.20;45.50;;;;;;10513956;28;20228;-77
2022/09/24 15:44:38;;;;;;;12.27;11.07;;;18.20;45.90;;;;;;10511073;28;20227;-78
2022/09/24 15:49:41;;;;;;;11.47;10.50;;;18.20;45.30;;;;;;10475449;28;20711;-78
2022/09/24 15:54:46;;;;;;;11.57;10.57;;;18.20;45.40;;;;;;10476971;28;20274;-78
2022/09/24 15:59:50;;;;;;;11.23;10.17;;;18.20;46.00;;;;;;10496678;28;20273;-79
2022/09/24 16:04:53;;;;;;;10.70;9.90;;;18.20;45.90;;;;;;10489717;28;20715;-78
2022/09/24 16:09:57;;;;;;;9.73;8.93;;;18.20;45.90;;;;;;10504943;28;20264;-78
2022/09/24 16:15:02;;;;;;;10.03;9.13;;;18.30;46.10;;;;;;10498914;28;20712;-78
2022/09/24 16:20:08;;;;;;;9.90;9.07;;;18.30;45.50;;;;;;10479230;28;20230;-76
2022/09/24 16:25:12;;;;;;;8.77;8.07;;;18.40;45.60;;;;;;10495281;28;20228;-77
2022/09/24 16:30:16;;;;;;;9.87;9.07;;;18.40;46.00;;;;;;10497577;28;20253;-77
2022/09/24 16:35:19;;;;;;;10.60;9.67;;;18.40;45.60;;;;;;10499944;28;20735;-77
2022/09/24 16:40:23;;;;;;;9.00;8.20;;;18.40;45.70;;;;;;10510453;28;20236;-77
2022/09/24 16:45:27;;;;;;;8.30;7.70;;;18.40;46.00;;;;;;10512288;28;20255;-77
2022/09/24 16:50:30;;;;;;;8.93;8.13;;;18.40;45.50;;;;;;10504816;28;20745;-77
2022/09/24 16:55:34;;;;;;;9.53;8.73;;;18.40;45.50;;;;;;10500751;28;20219;-77
2022/09/24 17:00:42;;;;;;;9.73;8.90;;;18.40;46.00;;;;;;10494834;28;20227;-77
2022/09/24 17:05:45;;;;;;;8.40;7.70;;;18.40;46.50;;;;;;10501930;28;20224;-77
2022/09/24 17:10:53;;;;;;;8.40;7.70;;;18.40;45.60;;;;;;10502695;28;20223;-77
2022/09/24 17:16:02;;;;;;;10.17;9.20;;;18.40;46.30;;;;;;10503519;28;20220;-77
2022/09/24 17:21:48;;;;;;;9.80;9.00;;;18.40;45.60;;;;;;10505435;28;20219;-77
2022/09/24 17:26:55;;;;;;;10.10;9.10;;;18.30;46.50;;;;;;10488212;28;20302;-77
2022/09/24 17:31:58;;;;;;;10.53;9.63;;;18.30;45.90;;;;;;10508283;28;20242;-77
2022/09/24 17:37:01;;;;;;;9.90;9.10;;;18.30;45.60;;;;;;10512606;28;20239;-77
2022/09/24 17:42:06;;;;;;;9.67;8.87;;;18.30;45.70;;;;;;10503619;28;20235;-77
2022/09/24 17:47:09;;;;;;;9.77;8.97;;;18.30;46.00;;;;;;10504482;28;20238;-77
2022/09/24 17:52:13;;;;;;;8.30;7.57;;;18.30;45.60;;;;;;10494790;28;20931;-77
2022/09/24 17:57:17;;;;;;;7.93;7.23;;;18.20;45.60;;;;;;10500279;28;20227;-77
2022/09/24 18:02:20;;;;;;;7.97;7.37;;;18.20;46.00;;;;;;10494605;28;20252;-78
2022/09/24 18:07:23;;;;;;;8.40;7.60;;;18.20;45.60;;;;;;10511045;28;20295;-77
2022/09/24 18:12:28;;;;;;;8.40;7.70;;;18.20;45.60;;;;;;10507247;28;20688;-78
2022/09/24 18:17:31;;;;;;;7.30;6.70;;;18.20;46.00;;;;;;10501840;28;20252;-78
2022/09/24 18:22:34;;;;;;;8.97;8.27;;;18.10;45.60;;;;;;10513015;28;20231;-78
2022/09/24 18:27:39;;;;;;;8.23;7.57;;;18.10;45.70;;;;;;10522011;28;20224;-78
2022/09/24 18:32:45;;;;;;;8.57;7.87;;;18.10;46.00;;;;;;10520528;28;20220;-78
2022/09/24 18:37:48;;;;;;;9.50;8.70;;;18.10;46.10;;;;;;10519589;28;20224;-78
2022/09/24 18:42:53;;;;;;;9.37;8.67;;;18.10;45.70;;;;;;10521718;28;20224;-78
2022/09/24 18:47:57;;;;;;;7.77;7.17;;;18.10;45.80;;;;;;10517843;28;20227;-78
2022/09/24 18:53:00;;;;;;;10.00;9.20;;;18.00;45.40;;;;;;10521410;28;20260;-78
2022/09/24 18:58:05;;;;;;;8.50;7.80;;;18.00;45.70;;;;;;10509722;28;20228;-77
2022/09/24 19:03:09;;;;;;;10.03;9.20;;;17.90;46.10;;;;;;10496399;28;20224;-77
2022/09/24 19:08:12;;;;;;;9.70;8.90;;;17.90;45.90;;;;;;10504801;28;20311;-77
2022/09/24 19:13:18;;;;;;;8.77;7.97;;;17.90;46.10;;;;;;10500009;28;20229;-77
2022/09/24 19:18:28;;;;;;;10.77;9.87;;;17.90;46.50;;;;;;10502962;28;20327;-77
2022/09/24 19:23:32;;;;;;;11.63;10.63;;;17.90;46.20;;;;;;10502706;28;20712;-77
2022/09/24 19:28:39;;;;;;;11.50;10.47;;;17.90;46.20;;;;;;10509300;28;20393;-77
2022/09/24 19:33:43;;;;;;;12.27;11.37;;;17.80;46.80;;;;;;10509010;28;20223;-77
2022/09/24 19:38:47;;;;;;;12.90;11.80;;;17.80;46.40;;;;;;10510499;28;20235;-77
2022/09/24 19:43:53;;;;;;;12.70;11.70;;;17.80;46.80;;;;;;10516737;28;20231;-77
2022/09/24 19:48:57;;;;;;;12.23;11.17;;;17.80;46.80;;;;;;10519646;28;20243;-77
2022/09/24 19:54:01;;;;;;;11.80;10.90;;;17.80;46.50;;;;;;10518857;28;20220;-77
2022/09/24 19:59:07;;;;;;;13.50;12.20;;;17.80;46.60;;;;;;10516492;28;20314;-78
2022/09/24 20:04:10;;;;;;;14.30;13.07;;;17.80;46.80;;;;;;10513412;28;20306;-78
2022/09/24 20:09:14;;;;;;;12.40;11.40;;;17.80;46.60;;;;;;10510297;28;20215;-77
2022/09/24 20:14:20;;;;;;;13.33;12.23;;;17.70;46.40;;;;;;10503211;28;20220;-78
2022/09/24 20:19:23;;;;;;;11.90;11.00;;;17.80;46.80;;;;;;10505190;28;20235;-78
2022/09/24 20:24:26;;;;;;;13.27;12.07;;;17.80;46.80;;;;;;10507444;28;20220;-77
2022/09/24 20:29:30;;;;;;;14.17;13.03;;;17.80;46.70;;;;;;10493663;28;20231;-77
2022/09/24 20:34:35;;;;;;;13.27;12.00;;;17.70;46.70;;;;;;10500800;28;20220;-78
2022/09/24 20:39:38;;;;;;;13.83;12.63;;;17.70;46.80;;;;;;10508924;28;20231;-79
2022/09/24 20:44:44;;;;;;;15.07;13.77;;;17.70;46.70;;;;;;10493249;28;20220;-78
2022/09/24 20:49:47;;;;;;;14.63;13.33;;;17.70;46.70;;;;;;10494087;28;20236;-78
2022/09/24 20:54:51;;;;;;;14.13;12.93;;;17.70;46.70;;;;;;10503632;28;20224;-78
2022/09/24 20:59:55;;;;;;;15.50;14.20;;;17.60;46.60;;;;;;10496510;28;20277;-78
2022/09/24 21:04:58;;;;;;;15.80;14.40;;;17.60;46.60;;;;;;10511565;28;20226;-78
2022/09/24 21:10:01;;;;;;;14.27;13.07;;;17.60;46.60;;;;;;10507851;28;20227;-78
2022/09/24 21:15:07;;;;;;;15.70;14.37;;;17.60;46.60;;;;;;10501376;28;20620;-78
2022/09/24 21:20:10;;;;;;;14.73;13.43;;;17.50;46.80;;;;;;10519241;28;20224;-78
2022/09/24 21:25:14;;;;;;;15.77;14.27;;;17.50;46.50;;;;;;10519164;28;20223;-77
2022/09/24 21:30:38;;;;;;;12.23;11.17;;;17.50;46.50;;;;;;10518977;28;20720;-78
2022/09/24 21:35:42;;;;;;;14.00;12.87;;;17.40;46.50;;;;;;10500056;28;20253;-78
2022/09/24 21:40:52;;;;;;;15.27;13.97;;;17.40;46.50;;;;;;10509057;28;20227;-77
2022/09/24 21:46:02;;;;;;;16.43;15.07;;;17.40;47.60;;;;;;10510667;28;20224;-76
2022/09/24 21:51:08;;;;;;;14.13;13.00;;;17.40;47.60;;;;;;10516058;28;20607;-77
2022/09/24 21:56:11;;;;;;;13.67;12.27;;;17.40;47.10;;;;;;10519601;28;20231;-77
2022/09/24 22:01:18;;;;;;;13.90;12.60;;;17.40;46.50;;;;;;10512777;28;20280;-76
2022/09/24 22:06:21;;;;;;;16.60;15.23;;;17.40;47.30;;;;;;10519648;28;20231;-77
2022/09/24 22:11:26;;;;;;;13.37;12.23;;;17.40;46.60;;;;;;10504246;28;20399;-77
2022/09/24 22:22:32;;;;;;;15.03;13.87;;;17.40;47.50;;;;;;10513050;28;20228;-76
2022/09/24 22:27:35;;;;;;;14.77;13.57;;;17.40;46.80;;;;;;10512495;28;20285;-77
2022/09/24 22:32:38;;;;;;;13.40;12.27;;;17.40;46.50;;;;;;10523524;28;20216;-76
2022/09/24 22:37:42;;;;;;;14.77;13.57;;;17.40;46.50;;;;;;10528229;28;20716;-76
2022/09/24 22:42:45;;;;;;;13.53;12.43;;;17.40;46.50;;;;;;10517525;28;20293;-76
2022/09/24 22:47:48;;;;;;;13.77;12.67;;;17.40;46.50;;;;;;10520584;28;20990;-77
2022/09/24 22:52:53;;;;;;;12.80;11.80;;;17.40;46.50;;;;;;10521879;28;20226;-77
2022/09/24 22:57:56;;;;;;;14.73;13.60;;;17.40;46.50;;;;;;10516701;28;20716;-77
2022/09/24 23:02:59;;;;;;;14.77;13.53;;;17.40;46.50;;;;;;10519132;28;20598;-77
2022/09/24 23:08:04;;;;;;;12.87;11.87;;;17.40;46.50;;;;;;10516244;28;20321;-77
2022/09/24 23:13:07;;;;;;;16.03;14.53;;;17.40;46.50;;;;;;10522013;28;20224;-77
2022/09/24 23:18:10;;;;;;;14.93;13.60;;;17.40;46.50;;;;;;10522395;28;20231;-76
2022/09/24 23:23:15;;;;;;;14.10;12.90;;;17.40;46.50;;;;;;10521621;28;20720;-77
2022/09/24 23:28:18;;;;;;;11.80;10.90;;;17.40;46.50;;;;;;10512473;28;20212;-77
2022/09/24 23:33:21;;;;;;;11.93;10.93;;;17.30;46.30;;;;;;10512374;28;20621;-77
2022/09/24 23:38:26;;;;;;;13.63;12.53;;;17.30;46.30;;;;;;10522626;28;20286;-77
2022/09/24 23:43:29;;;;;;;14.73;13.53;;;17.20;46.40;;;;;;10513533;28;20240;-76
2022/09/24 23:48:33;;;;;;;16.77;15.33;;;17.20;46.30;;;;;;10512404;28;20228;-77
2022/09/24 23:53:38;;;;;;;17.27;15.73;;;17.20;46.30;;;;;;10510599;28;20216;-76
2022/09/24 23:58:41;;;;;;;11.80;10.80;;;17.20;46.60;;;;;;10516880;28;20227;-76
